createdAt,value
2017-10-28T00:00:14.951Z,1021.6
2017-10-28T00:01:23.576Z,1021.55
2017-10-28T00:02:32.197Z,1021.54
2017-10-28T00:03:40.831Z,1021.47
2017-10-28T00:04:49.455Z,1021.4
2017-10-28T00:05:58.080Z,1021.4
2017-10-28T00:07:06.704Z,1021.42
2017-10-28T00:08:15.325Z,1021.42
2017-10-28T00:09:23.961Z,1021.43
2017-10-28T00:10:32.584Z,1021.4
2017-10-28T00:11:41.211Z,1021.41
2017-10-28T00:12:49.844Z,1021.38
2017-10-28T00:13:58.469Z,1021.4
2017-10-28T00:15:07.094Z,1021.42
2017-10-28T00:16:15.721Z,1021.42
2017-10-28T00:17:24.349Z,1021.4
2017-10-28T00:18:33.310Z,1021.42
2017-10-28T00:19:41.937Z,1021.36
2017-10-28T00:20:50.567Z,1021.32
2017-10-28T00:21:59.194Z,1021.32
2017-10-28T00:23:07.822Z,1021.23
2017-10-28T00:24:16.441Z,1021.18
2017-10-28T00:25:25.075Z,1021.2
2017-10-28T00:26:33.695Z,1021.11
2017-10-28T00:27:42.319Z,1021.1
2017-10-28T00:28:50.943Z,1021.09
2017-10-28T00:29:59.575Z,1020.99
2017-10-28T00:31:08.201Z,1020.99
2017-10-28T00:32:16.828Z,1020.95
2017-10-28T00:33:25.455Z,1020.93
2017-10-28T00:34:34.079Z,1020.93
2017-10-28T00:35:42.712Z,1020.88
2017-10-28T00:36:51.986Z,1020.92
2017-10-28T00:38:00.611Z,1020.88
2017-10-28T00:39:09.236Z,1020.89
2017-10-28T00:40:17.857Z,1020.91
2017-10-28T00:41:26.484Z,1020.93
2017-10-28T00:42:35.110Z,1020.96
2017-10-28T00:43:43.738Z,1020.99
2017-10-28T00:44:52.364Z,1021.03
2017-10-28T00:46:00.990Z,1021
2017-10-28T00:47:09.616Z,1021
2017-10-28T00:48:18.237Z,1020.95
2017-10-28T00:49:26.868Z,1020.92
2017-10-28T00:50:35.483Z,1020.9
2017-10-28T00:51:44.110Z,1020.85
2017-10-28T00:52:52.730Z,1020.85
2017-10-28T00:54:01.357Z,1020.85
2017-10-28T00:55:09.988Z,1020.76
2017-10-28T00:56:18.613Z,1020.74
2017-10-28T00:57:27.240Z,1020.73
2017-10-28T00:58:35.860Z,1020.69
2017-10-28T00:59:44.490Z,1020.67
2017-10-28T01:00:53.115Z,1020.68
2017-10-28T01:02:01.736Z,1020.68
2017-10-28T01:03:10.361Z,1020.55
2017-10-28T01:04:18.995Z,1020.45
2017-10-28T01:05:27.947Z,1020.47
2017-10-28T01:06:36.905Z,1020.36
2017-10-28T01:07:45.523Z,1020.3
2017-10-28T01:08:54.154Z,1020.32
2017-10-28T01:10:02.783Z,1020.25
2017-10-28T01:11:11.407Z,1020.24
2017-10-28T01:12:20.028Z,1020.3
2017-10-28T01:13:28.989Z,1020.25
2017-10-28T01:14:37.620Z,1020.29
2017-10-28T01:15:46.245Z,1020.29
2017-10-28T01:16:54.876Z,1020.23
2017-10-28T01:18:03.500Z,1020.26
2017-10-28T01:19:12.124Z,1020.27
2017-10-28T01:20:20.748Z,1020.25
2017-10-28T01:21:29.369Z,1020.32
2017-10-28T01:22:38.004Z,1020.3
2017-10-28T01:23:46.625Z,1020.26
2017-10-28T01:24:55.250Z,1020.18
2017-10-28T01:26:03.882Z,1020.2
2017-10-28T01:27:12.505Z,1020.22
2017-10-28T01:28:21.164Z,1020.16
2017-10-28T01:29:29.751Z,1020.16
2017-10-28T01:30:38.379Z,1020.09
2017-10-28T01:31:46.997Z,1020.04
2017-10-28T01:32:55.627Z,1020
2017-10-28T01:34:04.249Z,1019.97
2017-10-28T01:35:12.887Z,1019.89
2017-10-28T01:36:21.516Z,1019.87
2017-10-28T01:37:30.133Z,1019.85
2017-10-28T01:38:38.757Z,1019.9
2017-10-28T01:39:47.387Z,1019.88
2017-10-28T01:40:56.002Z,1019.87
2017-10-28T01:42:04.620Z,1019.86
2017-10-28T01:43:13.249Z,1019.82
2017-10-28T01:44:21.869Z,1019.8
2017-10-28T01:45:30.494Z,1019.73
2017-10-28T01:46:39.121Z,1019.74
2017-10-28T01:47:47.742Z,1019.73
2017-10-28T01:48:56.706Z,1019.7
2017-10-28T01:50:05.328Z,1019.68
2017-10-28T01:51:13.955Z,1019.67
2017-10-28T01:52:22.587Z,1019.66
2017-10-28T01:53:31.206Z,1019.68
2017-10-28T01:54:39.832Z,1019.64
2017-10-28T01:55:48.460Z,1019.65
2017-10-28T01:56:57.087Z,1019.52
2017-10-28T01:58:05.715Z,1019.47
2017-10-28T01:59:14.334Z,1019.51
2017-10-28T02:00:22.961Z,1019.52
2017-10-28T02:01:31.591Z,1019.46
2017-10-28T02:02:40.208Z,1019.42
2017-10-28T02:03:48.840Z,1019.44
2017-10-28T02:04:57.464Z,1019.39
2017-10-28T02:06:06.091Z,1019.34
2017-10-28T02:07:14.719Z,1019.28
2017-10-28T02:08:23.338Z,1019.36
2017-10-28T02:09:32.299Z,1019.24
2017-10-28T02:10:40.925Z,1019.34
2017-10-28T02:11:49.893Z,1019.29
2017-10-28T02:12:58.501Z,1019.3
2017-10-28T02:14:07.125Z,1019.27
2017-10-28T02:15:15.749Z,1019.3
2017-10-28T02:16:24.701Z,1019.24
2017-10-28T02:17:33.337Z,1019.15
2017-10-28T02:18:41.959Z,1019.14
2017-10-28T02:19:50.915Z,1019.24
2017-10-28T02:20:59.536Z,1019.27
2017-10-28T02:22:08.166Z,1019.2
2017-10-28T02:23:16.791Z,1019.15
2017-10-28T02:24:25.415Z,1019.19
2017-10-28T02:25:34.038Z,1019.1
2017-10-28T02:26:42.665Z,1019.09
2017-10-28T02:27:51.291Z,1019.04
2017-10-28T02:28:59.916Z,1018.94
2017-10-28T02:30:08.551Z,1018.84
2017-10-28T02:31:17.517Z,1018.86
2017-10-28T02:32:26.139Z,1018.78
2017-10-28T02:33:34.762Z,1018.8
2017-10-28T02:34:43.399Z,1018.82
2017-10-28T02:35:52.355Z,1018.76
2017-10-28T02:37:00.979Z,1018.72
2017-10-28T02:38:09.602Z,1018.78
2017-10-28T02:39:18.233Z,1018.79
2017-10-28T02:40:26.860Z,1018.77
2017-10-28T02:41:35.484Z,1018.73
2017-10-28T02:42:44.108Z,1018.63
2017-10-28T02:43:52.738Z,1018.55
2017-10-28T02:45:01.356Z,1018.51
2017-10-28T02:46:10.326Z,1018.47
2017-10-28T02:47:18.947Z,1018.36
2017-10-28T02:48:27.579Z,1018.38
2017-10-28T02:49:36.207Z,1018.51
2017-10-28T02:50:44.828Z,1018.47
2017-10-28T02:51:53.783Z,1018.54
2017-10-28T02:53:02.412Z,1018.55
2017-10-28T02:54:11.031Z,1018.56
2017-10-28T02:55:19.657Z,1018.59
2017-10-28T02:56:28.281Z,1018.54
2017-10-28T02:57:36.934Z,1018.57
2017-10-28T02:58:45.536Z,1018.52
2017-10-28T02:59:54.164Z,1018.52
2017-10-28T03:01:02.791Z,1018.42
2017-10-28T03:02:11.414Z,1018.33
2017-10-28T03:03:20.047Z,1018.32
2017-10-28T03:04:28.672Z,1018.3
2017-10-28T03:05:37.293Z,1018.33
2017-10-28T03:06:45.925Z,1018.25
2017-10-28T03:07:54.549Z,1018.12
2017-10-28T03:09:03.168Z,1018.03
2017-10-28T03:10:11.797Z,1018.1
2017-10-28T03:11:20.423Z,1018.17
2017-10-28T03:12:29.044Z,1018.19
2017-10-28T03:13:37.670Z,1018.25
2017-10-28T03:14:46.299Z,1018.21
2017-10-28T03:15:54.916Z,1018.2
2017-10-28T03:17:03.552Z,1018.17
2017-10-28T03:18:12.172Z,1018.16
2017-10-28T03:19:20.798Z,1018.06
2017-10-28T03:20:29.428Z,1018.04
2017-10-28T03:21:38.046Z,1018.04
2017-10-28T03:22:46.678Z,1018
2017-10-28T03:23:55.299Z,1017.94
2017-10-28T03:25:03.932Z,1017.9
2017-10-28T03:26:12.552Z,1017.86
2017-10-28T03:27:21.177Z,1017.82
2017-10-28T03:28:29.803Z,1017.83
2017-10-28T03:29:38.430Z,1017.73
2017-10-28T03:30:47.379Z,1017.7
2017-10-28T03:31:56.344Z,1017.76
2017-10-28T03:33:04.964Z,1017.78
2017-10-28T03:34:13.926Z,1017.77
2017-10-28T03:35:22.544Z,1017.72
2017-10-28T03:36:31.174Z,1017.76
2017-10-28T03:37:40.131Z,1017.73
2017-10-28T03:38:48.758Z,1017.75
2017-10-28T03:39:57.375Z,1017.81
2017-10-28T03:41:06.004Z,1017.77
2017-10-28T03:42:14.630Z,1017.82
2017-10-28T03:43:23.247Z,1017.82
2017-10-28T03:44:31.874Z,1017.81
2017-10-28T03:45:40.501Z,1017.7
2017-10-28T03:46:49.127Z,1017.59
2017-10-28T03:47:57.754Z,1017.56
2017-10-28T03:49:06.373Z,1017.67
2017-10-28T03:50:15.001Z,1017.7
2017-10-28T03:51:23.631Z,1017.66
2017-10-28T03:52:32.241Z,1017.6
2017-10-28T03:53:41.205Z,1017.52
2017-10-28T03:54:49.830Z,1017.5
2017-10-28T03:55:58.455Z,1017.44
2017-10-28T03:57:07.083Z,1017.5
2017-10-28T03:58:15.699Z,1017.58
2017-10-28T03:59:24.327Z,1017.66
2017-10-28T04:00:32.949Z,1017.59
2017-10-28T04:01:41.580Z,1017.5
2017-10-28T04:02:50.202Z,1017.43
2017-10-28T04:03:58.825Z,1017.45
2017-10-28T04:05:07.450Z,1017.5
2017-10-28T04:06:16.076Z,1017.48
2017-10-28T04:07:24.693Z,1017.55
2017-10-28T04:08:33.321Z,1017.47
2017-10-28T04:09:41.946Z,1017.37
2017-10-28T04:10:50.569Z,1017.29
2017-10-28T04:11:59.193Z,1017.25
2017-10-28T04:13:07.821Z,1017.12
2017-10-28T04:14:16.444Z,1017.02
2017-10-28T04:15:25.072Z,1016.99
2017-10-28T04:16:33.689Z,1017.05
2017-10-28T04:17:42.315Z,1017.11
2017-10-28T04:18:50.940Z,1017.11
2017-10-28T04:19:59.559Z,1017.17
2017-10-28T04:21:08.184Z,1017.1
2017-10-28T04:22:16.813Z,1017.14
2017-10-28T04:23:25.435Z,1017.17
2017-10-28T04:24:34.059Z,1017.11
2017-10-28T04:25:42.688Z,1017.14
2017-10-28T04:26:51.312Z,1017.12
2017-10-28T04:27:59.932Z,1017.1
2017-10-28T04:29:08.565Z,1017.01
2017-10-28T04:30:17.179Z,1016.99
2017-10-28T04:31:25.809Z,1016.94
2017-10-28T04:32:34.428Z,1016.89
2017-10-28T04:33:43.048Z,1016.9
2017-10-28T04:34:51.678Z,1017.01
2017-10-28T04:36:00.300Z,1017.03
2017-10-28T04:37:08.924Z,1016.98
2017-10-28T04:38:17.560Z,1016.83
2017-10-28T04:39:26.180Z,1016.76
2017-10-28T04:40:34.803Z,1016.79
2017-10-28T04:41:43.428Z,1016.82
2017-10-28T04:42:52.057Z,1016.74
2017-10-28T04:44:00.677Z,1016.75
2017-10-28T04:45:09.306Z,1016.68
2017-10-28T04:46:17.927Z,1016.74
2017-10-28T04:47:26.560Z,1016.64
2017-10-28T04:48:35.183Z,1016.65
2017-10-28T04:49:43.804Z,1016.72
2017-10-28T04:50:52.432Z,1016.71
2017-10-28T04:52:01.049Z,1016.68
2017-10-28T04:53:10.016Z,1016.68
2017-10-28T04:54:18.639Z,1016.65
2017-10-28T04:55:27.262Z,1016.59
2017-10-28T04:56:35.896Z,1016.54
2017-10-28T04:57:44.517Z,1016.51
2017-10-28T04:58:53.139Z,1016.5
2017-10-28T05:00:01.762Z,1016.47
2017-10-28T05:01:10.397Z,1016.45
2017-10-28T05:02:19.016Z,1016.45
2017-10-28T05:03:27.639Z,1016.5
2017-10-28T05:04:36.261Z,1016.49
2017-10-28T05:05:44.898Z,1016.47
2017-10-28T05:06:53.518Z,1016.46
2017-10-28T05:08:02.140Z,1016.48
2017-10-28T05:09:10.763Z,1016.46
2017-10-28T05:10:19.393Z,1016.39
2017-10-28T05:11:28.008Z,1016.4
2017-10-28T05:12:36.651Z,1016.32
2017-10-28T05:13:45.587Z,1016.24
2017-10-28T05:14:54.220Z,1016.13
2017-10-28T05:16:02.840Z,1016.05
2017-10-28T05:17:11.467Z,1016.07
2017-10-28T05:18:20.096Z,1016
2017-10-28T05:19:28.723Z,1015.99
2017-10-28T05:20:37.343Z,1015.97
2017-10-28T05:21:45.970Z,1016
2017-10-28T05:22:54.598Z,1016.01
2017-10-28T05:24:03.216Z,1016
2017-10-28T05:25:11.842Z,1015.99
2017-10-28T05:26:20.473Z,1015.98
2017-10-28T05:27:29.096Z,1015.98
2017-10-28T05:28:37.730Z,1015.92
2017-10-28T05:29:46.349Z,1015.85
2017-10-28T05:30:54.972Z,1015.9
2017-10-28T05:32:03.600Z,1015.87
2017-10-28T05:33:12.222Z,1015.78
2017-10-28T05:34:20.847Z,1015.69
2017-10-28T05:35:29.490Z,1015.63
2017-10-28T05:36:38.093Z,1015.58
2017-10-28T05:37:46.716Z,1015.55
2017-10-28T05:38:55.346Z,1015.62
2017-10-28T05:40:03.967Z,1015.6
2017-10-28T05:41:12.585Z,1015.6
2017-10-28T05:42:21.555Z,1015.66
2017-10-28T05:43:30.173Z,1015.64
2017-10-28T05:44:38.798Z,1015.59
2017-10-28T05:45:47.422Z,1015.5
2017-10-28T05:46:56.044Z,1015.4
2017-10-28T05:48:04.676Z,1015.37
2017-10-28T05:49:13.295Z,1015.36
2017-10-28T05:50:21.929Z,1015.31
2017-10-28T05:51:30.541Z,1015.24
2017-10-28T05:52:39.500Z,1015.19
2017-10-28T05:53:48.126Z,1015.11
2017-10-28T05:54:56.750Z,1015.06
2017-10-28T05:56:05.374Z,1015.07
2017-10-28T05:57:14.003Z,1015.09
2017-10-28T05:58:22.626Z,1015.1
2017-10-28T05:59:31.254Z,1015.06
2017-10-28T06:00:39.871Z,1015.07
2017-10-28T06:01:48.501Z,1014.96
2017-10-28T06:02:57.129Z,1015.01
2017-10-28T06:04:05.751Z,1015.05
2017-10-28T06:05:14.371Z,1015.11
2017-10-28T06:06:23.002Z,1015.14
2017-10-28T06:07:31.625Z,1015.13
2017-10-28T06:08:40.245Z,1015
2017-10-28T06:09:48.878Z,1015.17
2017-10-28T06:10:57.497Z,1015.21
2017-10-28T06:12:06.120Z,1015.2
2017-10-28T06:13:14.739Z,1015.16
2017-10-28T06:14:23.366Z,1015.18
2017-10-28T06:15:32.332Z,1015.19
2017-10-28T06:16:40.955Z,1015.02
2017-10-28T06:17:49.576Z,1015.09
2017-10-28T06:18:58.205Z,1015.1
2017-10-28T06:20:06.825Z,1015.27
2017-10-28T06:21:15.450Z,1015.18
2017-10-28T06:22:24.077Z,1015.25
2017-10-28T06:23:32.702Z,1015.39
2017-10-28T06:24:41.662Z,1015.32
2017-10-28T06:25:50.289Z,1015.33
2017-10-28T06:26:58.911Z,1015.39
2017-10-28T06:28:07.543Z,1015.44
2017-10-28T06:29:16.172Z,1015.44
2017-10-28T06:30:24.797Z,1015.5
2017-10-28T06:31:33.418Z,1015.56
2017-10-28T06:32:42.043Z,1015.51
2017-10-28T06:33:50.662Z,1015.45
2017-10-28T06:34:59.291Z,1015.36
2017-10-28T06:36:07.918Z,1015.34
2017-10-28T06:37:16.538Z,1015.35
2017-10-28T06:38:25.168Z,1015.28
2017-10-28T06:39:33.794Z,1015.22
2017-10-28T06:40:42.419Z,1015.21
2017-10-28T06:41:51.051Z,1015.16
2017-10-28T06:42:59.668Z,1015.17
2017-10-28T06:44:08.301Z,1015.11
2017-10-28T06:45:16.929Z,1015.08
2017-10-28T06:46:25.549Z,1015.01
2017-10-28T06:47:34.178Z,1014.98
2017-10-28T06:48:42.804Z,1014.98
2017-10-28T06:49:51.761Z,1014.9
2017-10-28T06:51:00.388Z,1014.9
2017-10-28T06:52:09.007Z,1014.95
2017-10-28T06:53:17.632Z,1015.01
2017-10-28T06:54:26.261Z,1015.05
2017-10-28T06:55:34.882Z,1014.9
2017-10-28T06:56:43.514Z,1014.84
2017-10-28T06:57:52.139Z,1014.76
2017-10-28T06:59:00.770Z,1014.8
2017-10-28T07:00:09.392Z,1014.83
2017-10-28T07:01:18.014Z,1014.86
2017-10-28T07:02:26.644Z,1014.86
2017-10-28T07:03:35.267Z,1014.84
2017-10-28T07:04:43.886Z,1014.83
2017-10-28T07:05:52.513Z,1014.85
2017-10-28T07:07:01.138Z,1014.82
2017-10-28T07:08:09.761Z,1014.8
2017-10-28T07:09:18.383Z,1014.77
2017-10-28T07:10:27.021Z,1014.71
2017-10-28T07:11:35.639Z,1014.74
2017-10-28T07:12:44.265Z,1014.69
2017-10-28T07:13:52.881Z,1014.6
2017-10-28T07:15:01.509Z,1014.51
2017-10-28T07:16:10.135Z,1014.55
2017-10-28T07:17:18.760Z,1014.6
2017-10-28T07:18:27.388Z,1014.55
2017-10-28T07:19:36.005Z,1014.58
2017-10-28T07:20:44.629Z,1014.66
2017-10-28T07:21:53.253Z,1014.58
2017-10-28T07:23:01.871Z,1014.57
2017-10-28T07:24:10.495Z,1014.58
2017-10-28T07:25:19.456Z,1014.69
2017-10-28T07:26:28.414Z,1014.72
2017-10-28T07:27:37.047Z,1014.78
2017-10-28T07:28:45.668Z,1014.78
2017-10-28T07:29:54.294Z,1014.82
2017-10-28T07:31:03.254Z,1014.77
2017-10-28T07:32:11.875Z,1014.81
2017-10-28T07:33:20.505Z,1014.82
2017-10-28T07:34:29.126Z,1014.86
2017-10-28T07:35:37.749Z,1014.9
2017-10-28T07:36:46.373Z,1014.93
2017-10-28T07:37:55.006Z,1015
2017-10-28T07:39:03.963Z,1015.02
2017-10-28T07:40:12.603Z,1015.01
2017-10-28T07:41:21.219Z,1015
2017-10-28T07:42:29.844Z,1015.02
2017-10-28T07:43:38.473Z,1014.95
2017-10-28T07:44:47.096Z,1014.85
2017-10-28T07:45:55.721Z,1014.87
2017-10-28T07:47:04.354Z,1014.89
2017-10-28T07:48:12.986Z,1014.92
2017-10-28T07:49:21.940Z,1014.9
2017-10-28T07:50:30.560Z,1014.83
2017-10-28T07:51:39.185Z,1014.91
2017-10-28T07:52:48.162Z,1014.93
2017-10-28T07:53:56.782Z,1014.83
2017-10-28T07:55:05.416Z,1014.86
2017-10-28T07:56:14.032Z,1014.8
2017-10-28T07:57:22.663Z,1014.71
2017-10-28T07:58:31.618Z,1014.63
2017-10-28T07:59:40.572Z,1014.55
2017-10-28T08:00:49.200Z,1014.45
2017-10-28T08:01:57.827Z,1014.4
2017-10-28T08:03:06.453Z,1014.33
2017-10-28T08:04:15.074Z,1014.42
2017-10-28T08:05:23.706Z,1014.49
2017-10-28T08:06:32.341Z,1014.59
2017-10-28T08:07:40.954Z,1014.52
2017-10-28T08:08:49.588Z,1014.58
2017-10-28T08:09:58.205Z,1014.55
2017-10-28T08:11:07.165Z,1014.64
2017-10-28T08:12:15.788Z,1014.78
2017-10-28T08:13:24.415Z,1014.79
2017-10-28T08:14:33.046Z,1014.69
2017-10-28T08:15:41.668Z,1014.72
2017-10-28T08:16:50.292Z,1014.8
2017-10-28T08:17:58.921Z,1014.79
2017-10-28T08:19:07.542Z,1014.74
2017-10-28T08:20:16.165Z,1014.8
2017-10-28T08:21:24.793Z,1014.81
2017-10-28T08:22:33.419Z,1014.85
2017-10-28T08:23:42.038Z,1014.74
2017-10-28T08:24:50.669Z,1014.74
2017-10-28T08:25:59.636Z,1014.64
2017-10-28T08:27:08.266Z,1014.54
2017-10-28T08:28:16.883Z,1014.55
2017-10-28T08:29:25.508Z,1014.56
2017-10-28T08:30:34.137Z,1014.52
2017-10-28T08:31:42.761Z,1014.47
2017-10-28T08:32:51.378Z,1014.39
2017-10-28T08:34:00.003Z,1014.49
2017-10-28T08:35:08.630Z,1014.51
2017-10-28T08:36:17.249Z,1014.45
2017-10-28T08:37:25.875Z,1014.47
2017-10-28T08:38:34.514Z,1014.44
2017-10-28T08:39:43.164Z,1014.4
2017-10-28T08:40:51.759Z,1014.41
2017-10-28T08:42:00.383Z,1014.38
2017-10-28T08:43:09.013Z,1014.36
2017-10-28T08:44:17.643Z,1014.26
2017-10-28T08:45:26.262Z,1014.36
2017-10-28T08:46:34.895Z,1014.27
2017-10-28T08:47:43.519Z,1014.15
2017-10-28T08:48:52.144Z,1014.12
2017-10-28T08:50:00.778Z,1014.14
2017-10-28T08:51:09.395Z,1014.2
2017-10-28T08:52:18.025Z,1014.16
2017-10-28T08:53:26.647Z,1014.23
2017-10-28T08:54:35.280Z,1014.17
2017-10-28T08:55:43.904Z,1014.17
2017-10-28T08:56:52.530Z,1014.16
2017-10-28T08:58:01.159Z,1014.06
2017-10-28T08:59:09.791Z,1013.97
2017-10-28T09:00:18.413Z,1013.95
2017-10-28T09:01:27.369Z,1014.03
2017-10-28T09:02:35.999Z,1013.92
2017-10-28T09:03:44.623Z,1014.02
2017-10-28T09:04:53.252Z,1013.97
2017-10-28T09:06:01.883Z,1013.99
2017-10-28T09:07:10.507Z,1013.87
2017-10-28T09:08:19.139Z,1013.86
2017-10-28T09:09:27.759Z,1013.82
2017-10-28T09:10:36.388Z,1013.89
2017-10-28T09:11:45.018Z,1013.77
2017-10-28T09:12:53.637Z,1013.72
2017-10-28T09:14:02.266Z,1013.75
2017-10-28T09:15:10.890Z,1013.73
2017-10-28T09:16:19.517Z,1013.75
2017-10-28T09:17:28.142Z,1013.7
2017-10-28T09:18:36.773Z,1013.66
2017-10-28T09:19:45.398Z,1013.63
2017-10-28T09:20:54.022Z,1013.67
2017-10-28T09:22:02.657Z,1013.52
2017-10-28T09:23:11.270Z,1013.72
2017-10-28T09:24:19.900Z,1013.77
2017-10-28T09:25:28.526Z,1013.78
2017-10-28T09:26:37.151Z,1013.78
2017-10-28T09:27:45.782Z,1013.74
2017-10-28T09:28:54.406Z,1013.73
2017-10-28T09:30:03.032Z,1013.74
2017-10-28T09:31:11.662Z,1013.69
2017-10-28T09:32:20.288Z,1013.66
2017-10-28T09:33:28.916Z,1013.65
2017-10-28T09:34:37.544Z,1013.71
2017-10-28T09:35:46.172Z,1013.66
2017-10-28T09:36:54.795Z,1013.7
2017-10-28T09:38:03.425Z,1013.66
2017-10-28T09:39:12.047Z,1013.59
2017-10-28T09:40:20.676Z,1013.69
2017-10-28T09:41:29.298Z,1013.67
2017-10-28T09:42:37.922Z,1013.7
2017-10-28T09:43:46.551Z,1013.65
2017-10-28T09:44:55.178Z,1013.66
2017-10-28T09:46:03.806Z,1013.64
2017-10-28T09:47:12.428Z,1013.65
2017-10-28T09:48:21.049Z,1013.66
2017-10-28T09:49:29.683Z,1013.7
2017-10-28T09:50:38.306Z,1013.69
2017-10-28T09:51:46.932Z,1013.74
2017-10-28T09:52:55.556Z,1013.71
2017-10-28T09:54:04.189Z,1013.73
2017-10-28T09:55:12.824Z,1013.81
2017-10-28T09:56:21.449Z,1013.79
2017-10-28T09:57:30.073Z,1013.7
2017-10-28T09:58:38.703Z,1013.75
2017-10-28T09:59:47.329Z,1013.69
2017-10-28T10:00:55.955Z,1013.64
2017-10-28T10:02:04.584Z,1013.69
2017-10-28T10:03:13.214Z,1013.54
2017-10-28T10:04:21.837Z,1013.6
2017-10-28T10:05:30.471Z,1013.67
2017-10-28T10:06:39.093Z,1013.58
2017-10-28T10:07:47.727Z,1013.59
2017-10-28T10:08:56.347Z,1013.51
2017-10-28T10:10:04.973Z,1013.52
2017-10-28T10:11:13.599Z,1013.55
2017-10-28T10:12:22.233Z,1013.24
2017-10-28T10:13:30.852Z,1013.45
2017-10-28T10:14:39.808Z,1013.46
2017-10-28T10:15:48.438Z,1013.45
2017-10-28T10:16:57.064Z,1013.44
2017-10-28T10:18:05.692Z,1013.45
2017-10-28T10:19:14.321Z,1013.5
2017-10-28T10:20:22.951Z,1013.4
2017-10-28T10:21:31.583Z,1013.28
2017-10-28T10:22:40.200Z,1013.24
2017-10-28T10:23:48.826Z,1013.15
2017-10-28T10:24:57.453Z,1013.21
2017-10-28T10:26:06.072Z,1013.19
2017-10-28T10:27:14.701Z,1013.21
2017-10-28T10:28:23.336Z,1013.06
2017-10-28T10:29:31.957Z,1013.13
2017-10-28T10:30:40.581Z,1013.19
2017-10-28T10:31:49.214Z,1013.13
2017-10-28T10:32:57.843Z,1013.02
2017-10-28T10:34:06.466Z,1013.07
2017-10-28T10:35:15.101Z,1013.03
2017-10-28T10:36:23.714Z,1013.03
2017-10-28T10:37:32.346Z,1013.12
2017-10-28T10:38:40.973Z,1013.1
2017-10-28T10:39:49.604Z,1013.14
2017-10-28T10:40:58.229Z,1013.01
2017-10-28T10:42:06.852Z,1013.05
2017-10-28T10:43:15.484Z,1013.01
2017-10-28T10:44:24.107Z,1013
2017-10-28T10:45:32.735Z,1012.96
2017-10-28T10:46:41.366Z,1012.94
2017-10-28T10:47:49.989Z,1012.95
2017-10-28T10:48:58.610Z,1012.92
2017-10-28T10:50:07.250Z,1012.97
2017-10-28T10:51:15.879Z,1013.02
2017-10-28T10:52:24.510Z,1013.06
2017-10-28T10:53:33.127Z,1012.97
2017-10-28T10:54:41.757Z,1012.93
2017-10-28T10:55:50.386Z,1012.92
2017-10-28T10:56:59.016Z,1012.85
2017-10-28T10:58:07.645Z,1012.84
2017-10-28T10:59:16.604Z,1012.78
2017-10-28T11:00:25.230Z,1012.8
2017-10-28T11:01:34.514Z,1012.77
2017-10-28T11:02:43.149Z,1012.78
2017-10-28T11:03:51.776Z,1012.72
2017-10-28T11:05:00.392Z,1012.59
2017-10-28T11:06:09.016Z,1012.59
2017-10-28T11:07:17.641Z,1012.64
2017-10-28T11:08:26.277Z,1012.58
2017-10-28T11:09:34.902Z,1012.64
2017-10-28T11:10:43.526Z,1012.58
2017-10-28T11:11:52.161Z,1012.62
2017-10-28T11:13:00.783Z,1012.62
2017-10-28T11:14:09.412Z,1012.51
2017-10-28T11:15:18.036Z,1012.39
2017-10-28T11:16:26.662Z,1012.36
2017-10-28T11:17:35.626Z,1012.4
2017-10-28T11:18:44.257Z,1012.42
2017-10-28T11:19:52.884Z,1012.42
2017-10-28T11:21:01.503Z,1012.37
2017-10-28T11:22:10.134Z,1012.33
2017-10-28T11:23:18.766Z,1012.35
2017-10-28T11:24:27.388Z,1012.32
2017-10-28T11:25:36.013Z,1012.33
2017-10-28T11:26:44.978Z,1012.24
2017-10-28T11:27:53.601Z,1012.18
2017-10-28T11:29:02.227Z,1012.18
2017-10-28T11:30:10.860Z,1012.29
2017-10-28T11:31:19.489Z,1012.28
2017-10-28T11:32:28.108Z,1012.36
2017-10-28T11:33:36.741Z,1012.37
2017-10-28T11:34:45.360Z,1012.46
2017-10-28T11:35:53.995Z,1012.35
2017-10-28T11:37:02.946Z,1012.34
2017-10-28T11:38:11.573Z,1012.41
2017-10-28T11:39:20.204Z,1012.41
2017-10-28T11:40:28.831Z,1012.38
2017-10-28T11:41:37.457Z,1012.36
2017-10-28T11:42:46.087Z,1012.34
2017-10-28T11:43:54.712Z,1012.34
2017-10-28T11:45:03.346Z,1012.3
2017-10-28T11:46:11.973Z,1012.29
2017-10-28T11:47:20.596Z,1012.14
2017-10-28T11:48:29.230Z,1012.17
2017-10-28T11:49:37.849Z,1012.05
2017-10-28T11:50:46.483Z,1011.97
2017-10-28T11:51:55.435Z,1012
2017-10-28T11:53:04.060Z,1011.98
2017-10-28T11:54:12.692Z,1011.94
2017-10-28T11:55:21.316Z,1011.85
2017-10-28T11:56:29.944Z,1011.9
2017-10-28T11:57:38.579Z,1011.88
2017-10-28T11:58:47.203Z,1011.96
2017-10-28T11:59:55.826Z,1011.92
2017-10-28T12:01:04.786Z,1011.87
2017-10-28T12:02:13.416Z,1011.83
2017-10-28T12:03:22.037Z,1011.73
2017-10-28T12:04:30.667Z,1011.69
2017-10-28T12:05:39.289Z,1011.64
2017-10-28T12:06:47.926Z,1011.65
2017-10-28T12:07:56.549Z,1011.44
2017-10-28T12:09:05.176Z,1011.41
2017-10-28T12:10:13.805Z,1011.34
2017-10-28T12:11:22.433Z,1011.24
2017-10-28T12:12:31.054Z,1011.22
2017-10-28T12:13:39.683Z,1011.22
2017-10-28T12:14:48.314Z,1011.18
2017-10-28T12:15:57.266Z,1011.08
2017-10-28T12:17:05.895Z,1011.12
2017-10-28T12:18:14.527Z,1011.01
2017-10-28T12:19:23.156Z,1011.07
2017-10-28T12:20:32.114Z,1011.12
2017-10-28T12:21:40.736Z,1011.15
2017-10-28T12:22:49.367Z,1011.15
2017-10-28T12:23:58.000Z,1011.12
2017-10-28T12:25:06.623Z,1011.04
2017-10-28T12:26:15.250Z,1011.03
2017-10-28T12:27:24.209Z,1011.09
2017-10-28T12:28:32.834Z,1011.05
2017-10-28T12:29:41.457Z,1011.09
2017-10-28T12:30:50.091Z,1011.06
2017-10-28T12:31:58.716Z,1011.06
2017-10-28T12:33:07.348Z,1010.95
2017-10-28T12:34:15.967Z,1010.88
2017-10-28T12:35:24.598Z,1010.82
2017-10-28T12:36:33.226Z,1010.78
2017-10-28T12:37:41.854Z,1010.75
2017-10-28T12:38:50.476Z,1010.7
2017-10-28T12:39:59.111Z,1010.66
2017-10-28T12:41:07.742Z,1010.65
2017-10-28T12:42:16.372Z,1010.65
2017-10-28T12:43:24.994Z,1010.68
2017-10-28T12:44:33.625Z,1010.66
2017-10-28T12:45:42.255Z,1010.57
2017-10-28T12:46:50.882Z,1010.61
2017-10-28T12:47:59.516Z,1010.68
2017-10-28T12:49:08.135Z,1010.71
2017-10-28T12:50:16.763Z,1010.69
2017-10-28T12:51:25.395Z,1010.62
2017-10-28T12:52:34.020Z,1010.67
2017-10-28T12:53:42.650Z,1010.65
2017-10-28T12:54:51.606Z,1010.62
2017-10-28T12:56:00.229Z,1010.64
2017-10-28T12:57:08.869Z,1010.66
2017-10-28T12:58:17.487Z,1010.69
2017-10-28T12:59:26.111Z,1010.57
2017-10-28T13:00:34.734Z,1010.67
2017-10-28T13:01:43.370Z,1010.72
2017-10-28T13:02:52.321Z,1010.78
2017-10-28T13:04:00.953Z,1010.82
2017-10-28T13:05:09.580Z,1010.72
2017-10-28T13:06:18.206Z,1010.59
2017-10-28T13:07:26.837Z,1010.68
2017-10-28T13:08:35.460Z,1010.67
2017-10-28T13:09:44.087Z,1010.61
2017-10-28T13:10:52.716Z,1010.62
2017-10-28T13:12:01.342Z,1010.53
2017-10-28T13:13:09.967Z,1010.62
2017-10-28T13:14:18.598Z,1010.63
2017-10-28T13:15:27.228Z,1010.67
2017-10-28T13:16:35.847Z,1010.65
2017-10-28T13:17:44.481Z,1010.6
2017-10-28T13:18:53.107Z,1010.64
2017-10-28T13:20:01.743Z,1010.54
2017-10-28T13:21:10.371Z,1010.54
2017-10-28T13:22:19.000Z,1010.55
2017-10-28T13:23:27.628Z,1010.52
2017-10-28T13:24:36.258Z,1010.51
2017-10-28T13:25:44.878Z,1010.58
2017-10-28T13:26:53.506Z,1010.57
2017-10-28T13:28:02.139Z,1010.56
2017-10-28T13:29:10.760Z,1010.51
2017-10-28T13:30:19.390Z,1010.6
2017-10-28T13:31:28.021Z,1010.55
2017-10-28T13:32:36.655Z,1010.48
2017-10-28T13:33:45.276Z,1010.39
2017-10-28T13:34:53.899Z,1010.52
2017-10-28T13:36:02.524Z,1010.51
2017-10-28T13:37:11.153Z,1010.51
2017-10-28T13:38:19.777Z,1010.55
2017-10-28T13:39:28.408Z,1010.5
2017-10-28T13:40:37.036Z,1010.59
2017-10-28T13:41:45.670Z,1010.52
2017-10-28T13:42:54.637Z,1010.47
2017-10-28T13:44:03.255Z,1010.54
2017-10-28T13:45:11.885Z,1010.43
2017-10-28T13:46:20.513Z,1010.41
2017-10-28T13:47:29.148Z,1010.29
2017-10-28T13:48:37.774Z,1010.31
2017-10-28T13:49:46.400Z,1010.29
2017-10-28T13:50:55.032Z,1010.21
2017-10-28T13:52:03.659Z,1010.27
2017-10-28T13:53:12.280Z,1010.2
2017-10-28T13:54:20.914Z,1010.13